Time;durP1;ratioP1;P1;durP2;ratioP2;P2;SDS_P1;SDS_P2;PMS_P1;PMS_P2;Temp;Humidity;BMP_temperature;BMP_pressure;BME280_temperature;BME280_humidity;BME280_pressure;Samples;Min_cycle;Max_cycle;Signal;HPM_P1;HPM_P2
2021/09/14 00:01:22;;;;;;;7.80;5.00;;;;;;;;;;5033256;28;20303;-68
2021/09/14 00:03:49;;;;;;;7.53;5.30;;;;;;;;;;5041123;28;20053;-68
2021/09/14 00:06:15;;;;;;;5.72;4.45;;;;;;;;;;5041621;28;20049;-69
2021/09/14 00:08:42;;;;;;;6.82;4.80;;;;;;;;;;5041518;28;20038;-69
2021/09/14 00:11:09;;;;;;;9.32;4.63;;;;;;;;;;5033168;28;20076;-68
2021/09/14 00:13:36;;;;;;;8.57;4.70;;;;;;;;;;5033478;28;20187;-70
2021/09/14 00:16:02;;;;;;;6.90;4.20;;;;;;;;;;5033385;28;20053;-68
2021/09/14 00:18:29;;;;;;;7.32;4.40;;;;;;;;;;5033375;28;20575;-69
2021/09/14 00:20:55;;;;;;;5.72;4.40;;;;;;;;;;5033128;28;20496;-69
2021/09/14 00:23:22;;;;;;;6.38;4.60;;;;;;;;;;5032986;28;20049;-69
2021/09/14 00:25:48;;;;;;;6.57;4.38;;;;;;;;;;5033698;28;20111;-68
2021/09/14 00:28:16;;;;;;;7.93;4.05;;;;;;;;;;5043322;28;20068;-68
2021/09/14 00:30:43;;;;;;;7.68;4.38;;;;;;;;;;5052642;28;20059;-69
2021/09/14 00:33:09;;;;;;;6.93;4.95;;;;;;;;;;5052959;28;20052;-68
2021/09/14 00:35:35;;;;;;;7.68;4.88;;;;;;;;;;5052508;28;20051;-69
2021/09/14 00:38:02;;;;;;;6.20;4.45;;;;;;;;;;5053009;28;20056;-68
2021/09/14 00:40:28;;;;;;;7.60;4.88;;;;;;;;;;5052661;28;20056;-68
2021/09/14 00:42:55;;;;;;;6.25;4.45;;;;;;;;;;5052335;28;20079;-68
2021/09/14 00:45:23;;;;;;;5.90;3.95;;;;;;;;;;5052805;28;20068;-67
2021/09/14 00:47:49;;;;;;;6.55;4.20;;;;;;;;;;5052701;28;20037;-68
2021/09/14 00:50:16;;;;;;;7.68;4.85;;;;;;;;;;5052716;28;20049;-68
2021/09/14 00:52:42;;;;;;;8.32;5.40;;;;;;;;;;5052320;28;20414;-68
2021/09/14 00:55:09;;;;;;;6.75;4.97;;;;;;;;;;5052045;28;20052;-69
2021/09/14 00:57:35;;;;;;;7.18;4.40;;;;;;;;;;5033313;28;20037;-68
2021/09/14 01:00:02;;;;;;;6.82;4.65;;;;;;;;;;5032631;28;20550;-69
2021/09/14 01:02:30;;;;;;;9.27;4.25;;;;;;;;;;5032255;28;20072;-67
2021/09/14 01:04:57;;;;;;;5.50;4.38;;;;;;;;;;5041646;28;20494;-67
2021/09/14 01:07:23;;;;;;;6.68;4.72;;;;;;;;;;5050846;28;20661;-68
2021/09/14 01:09:50;;;;;;;7.43;5.50;;;;;;;;;;5043995;28;20045;-69
2021/09/14 01:12:18;;;;;;;6.32;4.78;;;;;;;;;;5052261;28;20045;-67
2021/09/14 01:14:52;;;;;;;8.70;5.60;;;;;;;;;;5052189;28;20057;-69
2021/09/14 01:17:18;;;;;;;8.20;5.30;;;;;;;;;;5052483;28;20052;-68
2021/09/14 01:19:47;;;;;;;7.70;4.85;;;;;;;;;;5052162;28;20072;-67
2021/09/14 01:22:14;;;;;;;6.15;4.63;;;;;;;;;;5051958;28;20661;-69
2021/09/14 01:24:42;;;;;;;6.70;4.70;;;;;;;;;;5052080;28;20077;-68
2021/09/14 01:27:08;;;;;;;8.60;6.43;;;;;;;;;;5035626;28;20080;-68
2021/09/14 01:32:19;;;;;;;9.18;5.18;;;;;;;;;;5051231;28;20110;-67
2021/09/14 01:34:45;;;;;;;6.50;4.63;;;;;;;;;;5049168;28;20052;-68
2021/09/14 01:37:12;;;;;;;6.65;5.13;;;;;;;;;;5051098;28;20045;-67
2021/09/14 01:39:38;;;;;;;7.93;5.32;;;;;;;;;;5051740;28;20815;-68
2021/09/14 01:42:06;;;;;;;11.70;6.05;;;;;;;;;;5051282;28;20056;-68
2021/09/14 01:44:32;;;;;;;8.13;5.53;;;;;;;;;;5051774;28;20063;-69
2021/09/14 01:46:59;;;;;;;8.75;5.47;;;;;;;;;;5051217;28;20052;-69
2021/09/14 01:49:25;;;;;;;7.00;5.18;;;;;;;;;;5051243;28;20044;-69
2021/09/14 01:51:52;;;;;;;6.15;4.78;;;;;;;;;;5051485;28;20392;-69
2021/09/14 01:54:18;;;;;;;6.05;4.53;;;;;;;;;;5051439;28;20064;-69
2021/09/14 01:56:45;;;;;;;8.32;5.25;;;;;;;;;;5037745;28;20064;-68
2021/09/14 01:59:13;;;;;;;6.50;4.68;;;;;;;;;;5031519;28;20045;-68
2021/09/14 02:01:41;;;;;;;6.75;4.65;;;;;;;;;;5031655;28;20168;-67
2021/09/14 02:04:11;;;;;;;8.63;4.80;;;;;;;;;;5030958;28;20107;-69
2021/09/14 02:06:58;;;;;;;8.93;5.15;;;;;;;;;;5045418;28;20503;-68
2021/09/14 02:42:58;;;;;;;7.22;5.53;;;;;;;;;;5014226;28;20459;-68
2021/09/14 02:56:35;;;;;;;6.05;4.75;;;;;;;;;;5050213;28;20148;-68
2021/09/14 02:59:01;;;;;;;7.38;4.43;;;;;;;;;;5051851;28;20048;-67
2021/09/14 03:01:27;;;;;;;6.43;4.90;;;;;;;;;;5054925;28;20491;-67
2021/09/14 03:03:56;;;;;;;5.75;4.40;;;;;;;;;;5054388;28;20064;-69
2021/09/14 03:06:24;;;;;;;6.38;4.68;;;;;;;;;;5051124;28;20060;-67
2021/09/14 03:08:52;;;;;;;7.25;4.30;;;;;;;;;;5048530;28;20474;-69
2021/09/14 03:11:20;;;;;;;7.43;4.97;;;;;;;;;;5042837;28;20076;-69
2021/09/14 03:13:46;;;;;;;9.68;4.80;;;;;;;;;;5034242;28;20159;-69
2021/09/14 03:16:13;;;;;;;6.25;4.72;;;;;;;;;;5034376;28;20057;-68
2021/09/14 03:18:41;;;;;;;6.07;4.35;;;;;;;;;;5034532;28;20068;-69
2021/09/14 03:21:11;;;;;;;6.45;4.40;;;;;;;;;;5034154;28;20498;-69
2021/09/14 03:23:37;;;;;;;7.32;4.93;;;;;;;;;;5034404;28;20046;-69
2021/09/14 03:26:04;;;;;;;7.03;5.18;;;;;;;;;;5044425;28;20059;-67
2021/09/14 03:28:30;;;;;;;8.23;5.18;;;;;;;;;;5054265;28;20048;-68
2021/09/14 03:30:57;;;;;;;6.18;4.25;;;;;;;;;;5054273;28;20059;-69
2021/09/14 03:33:23;;;;;;;6.70;4.63;;;;;;;;;;5054166;28;20404;-67
2021/09/14 03:35:50;;;;;;;6.95;4.90;;;;;;;;;;5053941;28;20483;-68
2021/09/14 03:38:18;;;;;;;8.02;4.97;;;;;;;;;;5054155;28;20471;-69
2021/09/14 03:40:44;;;;;;;9.70;6.63;;;;;;;;;;5053808;28;20049;-67
2021/09/14 03:43:12;;;;;;;7.38;5.20;;;;;;;;;;5053725;28;20049;-67
2021/09/14 03:45:39;;;;;;;7.72;5.15;;;;;;;;;;5053863;28;20049;-68
2021/09/14 03:48:06;;;;;;;7.57;5.25;;;;;;;;;;5054068;28;20191;-67
2021/09/14 03:50:33;;;;;;;8.13;5.68;;;;;;;;;;5053522;28;20060;-69
2021/09/14 03:53:00;;;;;;;12.05;6.32;;;;;;;;;;5052250;28;20430;-69
2021/09/14 03:55:28;;;;;;;8.32;5.15;;;;;;;;;;5046765;28;20056;-67
2021/09/14 03:57:54;;;;;;;7.13;5.00;;;;;;;;;;5036041;28;20056;-69
2021/09/14 04:00:21;;;;;;;7.15;4.47;;;;;;;;;;5053886;28;20049;-68
2021/09/14 04:02:49;;;;;;;7.97;5.05;;;;;;;;;;5053153;28;20136;-68
2021/09/14 04:10:49;;;;;;;5.57;4.43;;;;;;;;;;5045293;28;20083;-68
2021/09/14 04:13:15;;;;;;;8.98;4.82;;;;;;;;;;5046576;28;20053;-68
2021/09/14 04:15:42;;;;;;;7.38;5.13;;;;;;;;;;5045604;28;20087;-68
2021/09/14 04:18:10;;;;;;;5.85;4.55;;;;;;;;;;5053520;28;20053;-67
2021/09/14 04:20:36;;;;;;;8.65;6.05;;;;;;;;;;5053413;28;20094;-68
2021/09/14 04:23:03;;;;;;;10.65;5.32;;;;;;;;;;5053585;28;20056;-69
2021/09/14 04:25:29;;;;;;;8.05;5.50;;;;;;;;;;5050025;28;20045;-69
2021/09/14 04:27:57;;;;;;;6.55;4.70;;;;;;;;;;5043466;28;20064;-68
2021/09/14 04:30:23;;;;;;;5.90;4.25;;;;;;;;;;5045440;28;20080;-69
2021/09/14 04:32:50;;;;;;;6.97;4.78;;;;;;;;;;5051812;28;20053;-67
2021/09/14 04:35:16;;;;;;;7.32;4.97;;;;;;;;;;5052955;28;20049;-68
2021/09/14 04:37:43;;;;;;;6.53;4.57;;;;;;;;;;5053019;28;20450;-69
2021/09/14 04:40:11;;;;;;;9.02;5.65;;;;;;;;;;5052030;28;20045;-68
2021/09/14 04:42:37;;;;;;;9.10;4.43;;;;;;;;;;5049394;28;20399;-68
2021/09/14 04:45:07;;;;;;;6.95;5.00;;;;;;;;;;5052217;28;20056;-69
2021/09/14 04:47:33;;;;;;;10.18;5.55;;;;;;;;;;5052978;28;20057;-69
2021/09/14 04:49:59;;;;;;;12.77;6.63;;;;;;;;;;5052529;28;20055;-67
2021/09/14 04:52:26;;;;;;;10.20;6.13;;;;;;;;;;5052486;28;20056;-69
2021/09/14 04:54:52;;;;;;;10.13;5.78;;;;;;;;;;5048421;28;20057;-69
2021/09/14 04:57:19;;;;;;;10.77;5.43;;;;;;;;;;5040393;28;20052;-70
2021/09/14 04:59:45;;;;;;;9.40;5.72;;;;;;;;;;5040471;28;20266;-69
2021/09/14 05:02:13;;;;;;;8.88;5.07;;;;;;;;;;5050457;28;20049;-68
2021/09/14 05:04:39;;;;;;;11.10;5.72;;;;;;;;;;5044499;28;20442;-69
2021/09/14 05:07:06;;;;;;;7.75;5.28;;;;;;;;;;5052333;28;20056;-71
2021/09/14 05:09:32;;;;;;;8.32;5.50;;;;;;;;;;5043190;28;20056;-70
2021/09/14 05:11:59;;;;;;;7.15;5.15;;;;;;;;;;5051579;28;20052;-69
2021/09/14 05:14:25;;;;;;;8.45;6.32;;;;;;;;;;5051846;28;20049;-70
2021/09/14 05:16:52;;;;;;;8.38;5.30;;;;;;;;;;5051705;28;20045;-69
2021/09/14 05:19:30;;;;;;;9.48;5.25;;;;;;;;;;5051947;28;20045;-69
2021/09/14 05:21:58;;;;;;;7.43;4.80;;;;;;;;;;5049442;28;20053;-68
2021/09/14 05:24:25;;;;;;;9.32;5.38;;;;;;;;;;5051639;28;20056;-68
2021/09/14 05:26:51;;;;;;;8.93;5.82;;;;;;;;;;5045920;28;20485;-70
2021/09/14 05:29:18;;;;;;;6.88;4.85;;;;;;;;;;5050888;28;20045;-69
2021/09/14 05:31:44;;;;;;;7.72;5.30;;;;;;;;;;5050813;28;20057;-70
2021/09/14 05:34:11;;;;;;;6.75;4.95;;;;;;;;;;5050747;28;20052;-70
2021/09/14 05:36:38;;;;;;;6.70;4.38;;;;;;;;;;5050537;28;20511;-70
2021/09/14 05:39:05;;;;;;;7.80;4.88;;;;;;;;;;5050443;28;20136;-70
2021/09/14 05:41:32;;;;;;;7.57;6.00;;;;;;;;;;5051872;28;20057;-70
2021/09/14 05:43:58;;;;;;;11.70;5.65;;;;;;;;;;5051512;28;20059;-69
2021/09/14 05:46:25;;;;;;;16.35;5.53;;;;;;;;;;5051068;28;20049;-68
2021/09/14 05:48:52;;;;;;;12.18;5.13;;;;;;;;;;5050770;28;20056;-69
2021/09/14 05:51:18;;;;;;;8.85;5.15;;;;;;;;;;5051421;28;20052;-69
2021/09/14 05:53:46;;;;;;;5.97;3.63;;;;;;;;;;5051582;28;20056;-70
2021/09/14 05:56:13;;;;;;;5.53;3.88;;;;;;;;;;5034418;28;20070;-68
2021/09/14 05:58:39;;;;;;;7.95;4.43;;;;;;;;;;5031548;28;20631;-69
2021/09/14 06:01:08;;;;;;;7.15;4.65;;;;;;;;;;5031568;28;20057;-70
2021/09/14 06:03:34;;;;;;;6.10;4.20;;;;;;;;;;5031510;28;20053;-70
2021/09/14 06:06:01;;;;;;;7.68;4.82;;;;;;;;;;5031943;28;20404;-69
2021/09/14 06:08:28;;;;;;;7.80;4.82;;;;;;;;;;5031133;28;20050;-70
2021/09/14 06:10:56;;;;;;;6.38;4.50;;;;;;;;;;5043700;28;20056;-69
2021/09/14 06:13:22;;;;;;;6.72;4.50;;;;;;;;;;5042974;28;20040;-68
2021/09/14 06:15:48;;;;;;;7.93;4.85;;;;;;;;;;5031561;28;20072;-69
2021/09/14 06:18:15;;;;;;;6.55;4.03;;;;;;;;;;5031640;28;20408;-70
2021/09/14 06:20:42;;;;;;;9.23;6.13;;;;;;;;;;5031065;28;20053;-68
2021/09/14 06:23:08;;;;;;;11.45;5.80;;;;;;;;;;5031784;28;20411;-70
2021/09/14 06:25:36;;;;;;;11.15;6.03;;;;;;;;;;5031630;28;20053;-69
2021/09/14 06:28:05;;;;;;;6.85;4.78;;;;;;;;;;5046508;28;20611;-70
2021/09/14 06:30:31;;;;;;;7.55;4.97;;;;;;;;;;5051125;28;20041;-70
2021/09/14 06:32:58;;;;;;;6.10;4.45;;;;;;;;;;5051159;28;20056;-68
2021/09/14 06:35:24;;;;;;;7.93;4.57;;;;;;;;;;5050605;28;20049;-70
2021/09/14 06:37:50;;;;;;;7.63;4.95;;;;;;;;;;5051288;28;20045;-70
2021/09/14 06:40:17;;;;;;;8.35;5.47;;;;;;;;;;5051214;28;20056;-69
2021/09/14 06:42:43;;;;;;;8.18;4.95;;;;;;;;;;5050978;28;20053;-70
2021/09/14 06:45:11;;;;;;;11.55;5.22;;;;;;;;;;5051389;28;20514;-70
2021/09/14 06:47:38;;;;;;;7.65;5.57;;;;;;;;;;5051004;28;20060;-69
2021/09/14 06:50:05;;;;;;;9.02;6.93;;;;;;;;;;5050850;28;20048;-68
2021/09/14 06:52:31;;;;;;;7.85;5.40;;;;;;;;;;5051288;28;20442;-70
2021/09/14 06:54:58;;;;;;;8.88;5.90;;;;;;;;;;5038284;28;20474;-70
2021/09/14 06:57:24;;;;;;;7.80;5.32;;;;;;;;;;5030994;28;20060;-69
2021/09/14 06:59:51;;;;;;;7.30;5.25;;;;;;;;;;5031226;28;20048;-70
2021/09/14 07:02:19;;;;;;;7.53;5.30;;;;;;;;;;5031005;28;20492;-69
2021/09/14 07:04:47;;;;;;;6.35;4.90;;;;;;;;;;5031239;28;20060;-69
2021/09/14 07:07:13;;;;;;;10.07;4.80;;;;;;;;;;5031264;28;20054;-69
2021/09/14 07:09:40;;;;;;;7.82;4.65;;;;;;;;;;5031355;28;20041;-70
2021/09/14 07:12:07;;;;;;;7.40;4.82;;;;;;;;;;5048157;28;20553;-68
2021/09/14 07:14:33;;;;;;;7.00;4.63;;;;;;;;;;5049532;28;20475;-69
2021/09/14 07:17:00;;;;;;;12.52;6.18;;;;;;;;;;5031108;28;20056;-70
2021/09/14 07:19:28;;;;;;;7.20;5.53;;;;;;;;;;5031037;28;20443;-66
2021/09/14 07:21:54;;;;;;;7.53;5.20;;;;;;;;;;5031080;28;20137;-67
2021/09/14 07:24:21;;;;;;;8.15;5.43;;;;;;;;;;5031357;28;20480;-67
2021/09/14 07:26:47;;;;;;;11.65;6.70;;;;;;;;;;5030601;28;20058;-67
2021/09/14 07:29:14;;;;;;;7.80;4.85;;;;;;;;;;5030475;28;20045;-66
2021/09/14 07:31:44;;;;;;;6.53;4.57;;;;;;;;;;5030852;28;20072;-67
2021/09/14 07:34:10;;;;;;;7.03;5.43;;;;;;;;;;5030916;28;20136;-69
2021/09/14 07:36:38;;;;;;;6.35;4.75;;;;;;;;;;5030871;28;20060;-69
2021/09/14 07:39:05;;;;;;;6.50;4.45;;;;;;;;;;5030855;28;20053;-69
2021/09/14 07:41:31;;;;;;;6.10;4.65;;;;;;;;;;5030990;28;20485;-68
2021/09/14 07:43:57;;;;;;;6.85;5.00;;;;;;;;;;5030846;28;20484;-69
2021/09/14 07:46:24;;;;;;;8.15;4.43;;;;;;;;;;5032141;28;20069;-69
2021/09/14 07:48:50;;;;;;;5.93;4.28;;;;;;;;;;5033818;28;20056;-69
2021/09/14 07:51:17;;;;;;;5.45;3.65;;;;;;;;;;5034368;28;20049;-68
2021/09/14 07:53:45;;;;;;;5.18;4.25;;;;;;;;;;5038706;28;20510;-68
2021/09/14 07:56:12;;;;;;;6.55;4.05;;;;;;;;;;5053857;28;20083;-68
2021/09/14 07:58:38;;;;;;;5.90;4.43;;;;;;;;;;5054061;28;20052;-68
2021/09/14 08:01:05;;;;;;;6.13;4.35;;;;;;;;;;5054300;28;20045;-69
2021/09/14 08:03:31;;;;;;;8.57;4.90;;;;;;;;;;5054054;28;20060;-68
2021/09/14 08:05:57;;;;;;;6.43;4.15;;;;;;;;;;5054290;28;20049;-69
2021/09/14 08:08:24;;;;;;;7.13;4.35;;;;;;;;;;5053828;28;20053;-69
2021/09/14 08:10:52;;;;;;;6.75;4.38;;;;;;;;;;5053458;28;20053;-68
2021/09/14 08:13:18;;;;;;;6.35;4.28;;;;;;;;;;5048260;28;20048;-69
2021/09/14 08:15:44;;;;;;;5.40;3.80;;;;;;;;;;5051143;28;20057;-68
2021/09/14 08:18:11;;;;;;;5.32;3.60;;;;;;;;;;5034116;28;20053;-68
2021/09/14 08:20:37;;;;;;;5.55;3.85;;;;;;;;;;5033738;28;20069;-69
2021/09/14 08:23:04;;;;;;;7.10;4.03;;;;;;;;;;5033772;28;20508;-69
2021/09/14 08:25:30;;;;;;;6.07;4.13;;;;;;;;;;5033977;28;20053;-68
2021/09/14 08:27:58;;;;;;;6.43;3.80;;;;;;;;;;5033330;28;20068;-69
2021/09/14 08:30:24;;;;;;;5.18;3.75;;;;;;;;;;5033909;28;20049;-69
2021/09/14 08:32:51;;;;;;;6.68;3.67;;;;;;;;;;5033454;28;20427;-69
2021/09/14 08:35:18;;;;;;;5.57;3.92;;;;;;;;;;5034257;28;20099;-68
2021/09/14 08:37:44;;;;;;;7.13;3.58;;;;;;;;;;5033859;28;20054;-69
2021/09/14 08:40:12;;;;;;;7.00;4.20;;;;;;;;;;5033390;28;20041;-69
2021/09/14 08:42:39;;;;;;;6.32;3.65;;;;;;;;;;5033258;28;20045;-69
2021/09/14 08:45:09;;;;;;;5.22;3.65;;;;;;;;;;5033368;28;20049;-69
2021/09/14 08:47:37;;;;;;;7.82;3.60;;;;;;;;;;5033189;28;20045;-69
2021/09/14 08:50:05;;;;;;;4.88;3.95;;;;;;;;;;5032824;28;20072;-69
2021/09/14 08:52:31;;;;;;;4.63;3.58;;;;;;;;;;5032937;28;20500;-69
2021/09/14 08:54:58;;;;;;;5.22;4.30;;;;;;;;;;5050830;28;20503;-69
2021/09/14 08:57:24;;;;;;;5.32;3.80;;;;;;;;;;5052391;28;20491;-69
2021/09/14 08:59:51;;;;;;;6.07;3.78;;;;;;;;;;5052903;28;20060;-69
2021/09/14 09:02:22;;;;;;;5.32;3.70;;;;;;;;;;5043619;28;20057;-69
2021/09/14 09:04:55;;;;;;;6.00;3.92;;;;;;;;;;5032822;28;20053;-68
2021/09/14 09:07:33;;;;;;;5.43;4.03;;;;;;;;;;5032745;28;20500;-69
2021/09/14 09:10:14;;;;;;;4.97;3.60;;;;;;;;;;5032434;28;20053;-69
2021/09/14 09:12:42;;;;;;;5.28;3.40;;;;;;;;;;5039435;28;20072;-69
2021/09/14 09:15:21;;;;;;;6.30;3.75;;;;;;;;;;5044529;28;20492;-69
2021/09/14 09:17:59;;;;;;;5.45;3.72;;;;;;;;;;5040617;28;20049;-68
2021/09/14 09:20:26;;;;;;;4.57;3.38;;;;;;;;;;5032639;28;20049;-69
2021/09/14 09:22:57;;;;;;;4.50;3.42;;;;;;;;;;5032441;28;20053;-68
2021/09/14 09:25:24;;;;;;;4.95;3.50;;;;;;;;;;5037336;28;20056;-69
2021/09/14 09:27:51;;;;;;;6.95;3.78;;;;;;;;;;5037102;28;20077;-68
2021/09/14 09:30:21;;;;;;;6.85;3.75;;;;;;;;;;5032293;28;20056;-68
2021/09/14 09:32:51;;;;;;;6.40;3.25;;;;;;;;;;5032253;28;20061;-67
2021/09/14 09:35:25;;;;;;;4.13;3.10;;;;;;;;;;5032264;28;20057;-67
2021/09/14 09:37:52;;;;;;;5.63;3.40;;;;;;;;;;5032297;28;20045;-68
2021/09/14 09:40:26;;;;;;;4.70;3.22;;;;;;;;;;5031988;28;20316;-67
2021/09/14 09:42:52;;;;;;;3.97;2.83;;;;;;;;;;5032067;28;20408;-67
2021/09/14 09:45:20;;;;;;;4.82;3.17;;;;;;;;;;5032091;28;20476;-67
2021/09/14 09:47:48;;;;;;;3.85;3.17;;;;;;;;;;5034912;28;20049;-67
2021/09/14 09:50:15;;;;;;;3.75;2.80;;;;;;;;;;5036591;28;20050;-67
2021/09/14 09:52:44;;;;;;;3.97;2.67;;;;;;;;;;5032109;28;20056;-67
2021/09/14 09:55:11;;;;;;;4.32;3.15;;;;;;;;;;5035138;28;20080;-67
2021/09/14 09:57:38;;;;;;;6.97;6.00;;;;;;;;;;5034782;28;20049;-67
2021/09/14 10:00:08;;;;;;;4.85;3.20;;;;;;;;;;5031884;28;20045;-67
2021/09/14 10:02:40;;;;;;;5.57;3.83;;;;;;;;;;5031893;28;20492;-67
2021/09/14 10:05:09;;;;;;;3.45;2.80;;;;;;;;;;5031959;28;20049;-67
2021/09/14 10:07:36;;;;;;;5.22;3.45;;;;;;;;;;5031559;28;20507;-67
2021/09/14 10:10:05;;;;;;;4.93;3.05;;;;;;;;;;5030848;28;20468;-67
2021/09/14 10:12:33;;;;;;;5.10;3.25;;;;;;;;;;5031836;28;20054;-68
2021/09/14 10:15:01;;;;;;;4.50;3.00;;;;;;;;;;5035824;28;20480;-68
2021/09/14 10:17:29;;;;;;;6.90;4.10;;;;;;;;;;5048132;28;20080;-67
2021/09/14 10:19:55;;;;;;;5.35;3.30;;;;;;;;;;5031381;28;20468;-67
2021/09/14 10:22:25;;;;;;;4.38;2.90;;;;;;;;;;5031489;28;20069;-67
2021/09/14 10:24:56;;;;;;;4.03;2.70;;;;;;;;;;5031748;28;20136;-67
2021/09/14 10:27:23;;;;;;;5.63;4.07;;;;;;;;;;5031533;28;20087;-68
2021/09/14 10:29:57;;;;;;;6.00;3.08;;;;;;;;;;5031146;28;20053;-68
2021/09/14 10:32:23;;;;;;;8.40;3.88;;;;;;;;;;5031275;28;20053;-68
2021/09/14 10:34:53;;;;;;;4.13;3.03;;;;;;;;;;5031529;28;20056;-67
2021/09/14 10:37:20;;;;;;;5.25;2.90;;;;;;;;;;5031668;28;20049;-66
2021/09/14 10:39:48;;;;;;;4.55;3.08;;;;;;;;;;5031259;28;20407;-68
2021/09/14 10:42:15;;;;;;;4.47;2.63;;;;;;;;;;5031246;28;20393;-68
2021/09/14 10:44:43;;;;;;;4.55;2.85;;;;;;;;;;5031730;28;20476;-66
2021/09/14 10:47:11;;;;;;;3.92;2.75;;;;;;;;;;5031381;28;20435;-66
2021/09/14 10:49:49;;;;;;;4.63;3.13;;;;;;;;;;5030978;28;20056;-66
2021/09/14 10:52:17;;;;;;;3.60;2.90;;;;;;;;;;5031132;28;20051;-66
2021/09/14 10:54:48;;;;;;;4.55;3.33;;;;;;;;;;5046439;28;20539;-68
2021/09/14 10:57:14;;;;;;;3.97;3.08;;;;;;;;;;5031511;28;20488;-68
2021/09/14 10:59:48;;;;;;;4.30;2.90;;;;;;;;;;5031168;28;20505;-68
2021/09/14 11:02:15;;;;;;;4.28;3.15;;;;;;;;;;5031053;28;20053;-66
2021/09/14 11:04:42;;;;;;;5.57;3.10;;;;;;;;;;5031065;28;20464;-66
2021/09/14 11:07:11;;;;;;;3.67;2.78;;;;;;;;;;5031375;28;20049;-66
2021/09/14 11:09:38;;;;;;;4.30;3.38;;;;;;;;;;5030928;28;20049;-66
2021/09/14 11:12:06;;;;;;;4.55;3.08;;;;;;;;;;5030991;28;20526;-67
2021/09/14 11:14:37;;;;;;;5.55;3.22;;;;;;;;;;5037312;28;20821;-67
2021/09/14 11:17:03;;;;;;;3.72;2.75;;;;;;;;;;5040835;28;20110;-67
2021/09/14 11:19:30;;;;;;;5.07;3.17;;;;;;;;;;5033702;28;20053;-67
2021/09/14 11:21:57;;;;;;;4.60;3.13;;;;;;;;;;5034818;28;20069;-67
2021/09/14 11:24:23;;;;;;;5.97;3.80;;;;;;;;;;5035123;28;20060;-67
2021/09/14 11:26:49;;;;;;;4.53;3.20;;;;;;;;;;5034576;28;20054;-67
2021/09/14 11:29:18;;;;;;;4.60;3.67;;;;;;;;;;5034630;28;20411;-67
2021/09/14 11:31:44;;;;;;;4.80;3.42;;;;;;;;;;5034566;28;20647;-67
2021/09/14 11:34:11;;;;;;;6.97;2.95;;;;;;;;;;5050385;28;20479;-67
2021/09/14 11:36:37;;;;;;;5.05;3.42;;;;;;;;;;5054633;28;20053;-67
2021/09/14 11:39:06;;;;;;;4.50;3.65;;;;;;;;;;5054097;28;20064;-67
2021/09/14 11:41:33;;;;;;;5.07;3.83;;;;;;;;;;5051717;28;20422;-67
2021/09/14 11:44:00;;;;;;;4.15;3.40;;;;;;;;;;5034251;28;20415;-68
2021/09/14 11:46:28;;;;;;;4.10;3.17;;;;;;;;;;5034553;28;20431;-67
2021/09/14 11:48:55;;;;;;;4.47;2.92;;;;;;;;;;5034181;28;20053;-68
2021/09/14 11:51:22;;;;;;;3.83;2.80;;;;;;;;;;5033970;28;20056;-67
2021/09/14 11:53:50;;;;;;;9.13;7.40;;;;;;;;;;5034909;28;20062;-67
2021/09/14 11:56:18;;;;;;;4.22;3.20;;;;;;;;;;5043126;28;20107;-67
2021/09/14 11:58:46;;;;;;;3.95;2.90;;;;;;;;;;5033773;28;20053;-67
2021/09/14 12:01:13;;;;;;;4.43;3.30;;;;;;;;;;5034314;28;20475;-67
2021/09/14 12:03:44;;;;;;;4.78;3.17;;;;;;;;;;5033697;28;20053;-67
2021/09/14 12:06:12;;;;;;;4.88;2.83;;;;;;;;;;5034132;28;20049;-67
2021/09/14 12:08:40;;;;;;;5.18;3.35;;;;;;;;;;5033879;28;20045;-67
2021/09/14 12:11:06;;;;;;;4.57;2.95;;;;;;;;;;5033458;28;20046;-67
2021/09/14 12:13:38;;;;;;;4.18;3.03;;;;;;;;;;5033899;28;20511;-67
2021/09/14 12:16:06;;;;;;;3.88;2.67;;;;;;;;;;5037253;28;20049;-67
2021/09/14 12:18:34;;;;;;;3.83;2.95;;;;;;;;;;5042626;28;20137;-67
2021/09/14 12:21:01;;;;;;;5.93;3.25;;;;;;;;;;5033658;28;20053;-67
2021/09/14 12:23:28;;;;;;;4.53;2.92;;;;;;;;;;5033958;28;20045;-67
2021/09/14 12:25:54;;;;;;;5.03;2.72;;;;;;;;;;5033868;28;20484;-67
2021/09/14 12:28:21;;;;;;;4.85;3.17;;;;;;;;;;5033695;28;20050;-67
2021/09/14 12:30:47;;;;;;;8.02;3.30;;;;;;;;;;5033393;28;20507;-67
2021/09/14 12:33:15;;;;;;;5.65;2.70;;;;;;;;;;5032642;28;20411;-67
2021/09/14 12:35:42;;;;;;;3.78;3.13;;;;;;;;;;5033503;28;20046;-67
2021/09/14 12:38:10;;;;;;;4.50;3.20;;;;;;;;;;5033268;28;20062;-66
2021/09/14 12:40:36;;;;;;;3.80;2.78;;;;;;;;;;5033352;28;20050;-67
2021/09/14 12:43:03;;;;;;;5.55;2.88;;;;;;;;;;5033465;28;20045;-67
2021/09/14 12:45:29;;;;;;;3.42;2.72;;;;;;;;;;5045324;28;21330;-67
2021/09/14 12:47:56;;;;;;;4.65;3.13;;;;;;;;;;5050197;28;20045;-68
2021/09/14 12:50:23;;;;;;;4.13;2.80;;;;;;;;;;5052554;28;20056;-67
2021/09/14 12:52:49;;;;;;;4.05;2.90;;;;;;;;;;5050736;28;20049;-67
2021/09/14 12:55:17;;;;;;;4.10;2.53;;;;;;;;;;5050214;28;20076;-67
2021/09/14 12:57:43;;;;;;;4.22;2.55;;;;;;;;;;5052790;28;20068;-67
2021/09/14 13:00:12;;;;;;;3.60;2.58;;;;;;;;;;5052645;28;20769;-67
2021/09/14 13:02:38;;;;;;;2.97;2.20;;;;;;;;;;5052294;28;20060;-67
2021/09/14 13:05:06;;;;;;;3.55;2.65;;;;;;;;;;5052250;28;20048;-67
2021/09/14 13:07:32;;;;;;;4.15;2.60;;;;;;;;;;5052311;28;20057;-67
2021/09/14 13:09:58;;;;;;;3.58;2.50;;;;;;;;;;5052403;28;20049;-67
2021/09/14 13:12:31;;;;;;;3.67;2.30;;;;;;;;;;5052198;28;20087;-67
2021/09/14 13:17:41;;;;;;;3.65;2.70;;;;;;;;;;5048702;28;20071;-67
2021/09/14 13:20:09;;;;;;;3.45;2.45;;;;;;;;;;5040804;28;20053;-67
2021/09/14 13:22:35;;;;;;;4.97;2.90;;;;;;;;;;5050435;28;20403;-67
2021/09/14 13:25:02;;;;;;;3.88;2.88;;;;;;;;;;5052487;28;20048;-68
2021/09/14 13:27:29;;;;;;;4.55;2.53;;;;;;;;;;5052314;28;20530;-67
2021/09/14 13:29:56;;;;;;;3.45;2.30;;;;;;;;;;5052181;28;20411;-67
2021/09/14 13:32:22;;;;;;;4.45;2.80;;;;;;;;;;5052221;28;20052;-67
2021/09/14 13:34:49;;;;;;;4.07;2.55;;;;;;;;;;5052259;28;20060;-67
2021/09/14 13:37:15;;;;;;;3.55;2.65;;;;;;;;;;5051777;28;20049;-67
2021/09/14 13:39:42;;;;;;;4.35;2.88;;;;;;;;;;5051590;28;20045;-68
2021/09/14 13:42:11;;;;;;;4.55;2.72;;;;;;;;;;5051769;28;20041;-68
2021/09/14 13:47:23;;;;;;;3.70;2.30;;;;;;;;;;5048056;28;20055;-67
2021/09/14 13:49:50;;;;;;;3.95;2.50;;;;;;;;;;5051297;28;20414;-67
2021/09/14 13:52:18;;;;;;;3.97;2.90;;;;;;;;;;5050841;28;20069;-67
2021/09/14 13:54:44;;;;;;;4.72;2.70;;;;;;;;;;5050250;28;20053;-66
2021/09/14 13:57:11;;;;;;;4.13;2.42;;;;;;;;;;5050277;28;20522;-67
2021/09/14 13:59:38;;;;;;;4.63;2.53;;;;;;;;;;5050178;28;20605;-67
2021/09/14 14:02:05;;;;;;;4.32;2.53;;;;;;;;;;5049753;28;20045;-67
2021/09/14 14:04:31;;;;;;;4.57;2.65;;;;;;;;;;5050685;28;20052;-66
2021/09/14 14:06:59;;;;;;;3.97;2.70;;;;;;;;;;5051728;28;20045;-67
2021/09/14 14:09:25;;;;;;;5.07;2.53;;;;;;;;;;5039422;28;20084;-67
2021/09/14 14:11:52;;;;;;;4.15;3.15;;;;;;;;;;5031228;28;20045;-67
2021/09/14 14:14:18;;;;;;;3.28;2.50;;;;;;;;;;5041955;28;20076;-66
2021/09/14 14:16:46;;;;;;;5.20;3.40;;;;;;;;;;5050375;28;20483;-67
2021/09/14 14:19:12;;;;;;;3.70;2.80;;;;;;;;;;5041770;28;20408;-66
2021/09/14 14:21:39;;;;;;;25.23;3.40;;;;;;;;;;5041274;28;20056;-67
2021/09/14 14:24:06;;;;;;;6.03;3.03;;;;;;;;;;5051295;28;20368;-67
2021/09/14 14:26:32;;;;;;;5.82;3.17;;;;;;;;;;5050494;28;20055;-66
2021/09/14 14:28:59;;;;;;;4.45;3.00;;;;;;;;;;5050580;28;20574;-66
2021/09/14 14:31:25;;;;;;;6.10;2.65;;;;;;;;;;5050847;28;20049;-67
2021/09/14 14:33:53;;;;;;;3.42;2.53;;;;;;;;;;5050079;28;20095;-68
2021/09/14 14:36:20;;;;;;;5.55;2.92;;;;;;;;;;5050084;28;20052;-67
2021/09/14 14:38:47;;;;;;;7.18;3.05;;;;;;;;;;5050230;28;20060;-67
2021/09/14 14:41:14;;;;;;;3.65;2.70;;;;;;;;;;5050127;28;20052;-66
2021/09/14 14:43:40;;;;;;;3.80;2.72;;;;;;;;;;5049847;28;20052;-66
2021/09/14 14:46:08;;;;;;;3.33;2.38;;;;;;;;;;5049258;28;20052;-67
2021/09/14 14:48:34;;;;;;;5.13;2.80;;;;;;;;;;5049129;28;20041;-67
2021/09/14 14:51:02;;;;;;;5.80;2.75;;;;;;;;;;5050245;28;20092;-67
2021/09/14 14:53:29;;;;;;;3.92;2.47;;;;;;;;;;5050269;28;20045;-66
2021/09/14 14:55:55;;;;;;;3.95;2.60;;;;;;;;;;5053298;28;20049;-67
2021/09/14 14:58:22;;;;;;;4.50;2.97;;;;;;;;;;5054911;28;20053;-67
2021/09/14 15:00:49;;;;;;;4.85;2.90;;;;;;;;;;5054950;28;20060;-68
2021/09/14 15:03:16;;;;;;;4.47;3.13;;;;;;;;;;5054684;28;20048;-67
2021/09/14 15:05:45;;;;;;;4.55;2.95;;;;;;;;;;5054644;28;20110;-67
2021/09/14 15:08:13;;;;;;;3.60;2.80;;;;;;;;;;5054736;28;20045;-67
2021/09/14 15:10:39;;;;;;;5.20;3.22;;;;;;;;;;5054720;28;20056;-67
2021/09/14 15:13:06;;;;;;;4.20;3.10;;;;;;;;;;5054272;28;20049;-67
2021/09/14 15:15:32;;;;;;;4.03;2.90;;;;;;;;;;5052542;28;20419;-67
2021/09/14 15:17:59;;;;;;;4.78;3.08;;;;;;;;;;5044361;28;20045;-67
2021/09/14 15:20:27;;;;;;;3.40;2.70;;;;;;;;;;5041477;28;20045;-67
2021/09/14 15:22:53;;;;;;;4.43;3.10;;;;;;;;;;5045787;28;20049;-67
2021/09/14 15:25:21;;;;;;;5.13;3.25;;;;;;;;;;5054368;28;20087;-67
2021/09/14 15:27:48;;;;;;;4.05;3.05;;;;;;;;;;5054431;28;20052;-67
2021/09/14 15:30:26;;;;;;;4.53;3.10;;;;;;;;;;5052905;28;20049;-67
2021/09/14 15:32:53;;;;;;;6.90;3.17;;;;;;;;;;5053719;28;20060;-67
2021/09/14 15:35:21;;;;;;;6.40;3.30;;;;;;;;;;5054124;28;20102;-67
2021/09/14 15:37:48;;;;;;;5.05;3.30;;;;;;;;;;5054041;28;20067;-66
2021/09/14 15:40:14;;;;;;;4.10;2.92;;;;;;;;;;5054254;28;20064;-67
2021/09/14 15:42:42;;;;;;;4.95;2.97;;;;;;;;;;5053836;28;20183;-66